createdAt,value
2019-02-19T00:01:16.713Z,134.20
2019-02-19T00:03:48.236Z,148.53
2019-02-19T00:06:18.328Z,127.97
2019-02-19T00:08:48.523Z,118.33
2019-02-19T00:11:18.521Z,116.03
2019-02-19T00:13:48.680Z,120.37
2019-02-19T00:16:18.905Z,131.07
2019-02-19T00:18:49.091Z,129.43
2019-02-19T00:21:19.171Z,127.93
2019-02-19T00:23:49.311Z,124.67
2019-02-19T00:26:19.613Z,129.17
2019-02-19T00:28:49.649Z,129.87
2019-02-19T00:31:19.618Z,135.10
2019-02-19T00:33:49.744Z,137.87
2019-02-19T00:36:21.519Z,130.00
2019-02-19T00:38:51.536Z,114.70
2019-02-19T00:41:21.773Z,138.80
2019-02-19T00:43:51.796Z,122.00
2019-02-19T00:46:21.865Z,123.77
2019-02-19T00:48:52.053Z,120.03
2019-02-19T00:51:22.212Z,120.37
2019-02-19T00:53:52.241Z,129.20
2019-02-19T00:56:22.436Z,117.80
2019-02-19T00:58:52.623Z,120.20
2019-02-19T01:01:22.787Z,115.40
2019-02-19T01:03:53.038Z,110.70
2019-02-19T01:06:23.176Z,119.73
2019-02-19T01:08:53.266Z,105.70
2019-02-19T01:11:24.273Z,107.17
2019-02-19T01:13:55.817Z,122.33
2019-02-19T01:16:26.156Z,125.60
2019-02-19T01:18:56.216Z,127.80
2019-02-19T01:21:26.365Z,128.17
2019-02-19T01:23:56.541Z,115.30
2019-02-19T01:26:27.588Z,122.17
2019-02-19T01:28:58.361Z,115.10
2019-02-19T01:31:28.424Z,95.73
2019-02-19T01:33:58.545Z,112.73
2019-02-19T01:36:28.602Z,113.37
2019-02-19T01:38:58.759Z,115.23
2019-02-19T01:41:30.817Z,110.73
2019-02-19T01:44:00.879Z,109.87
2019-02-19T01:46:30.935Z,95.87
2019-02-19T01:49:01.028Z,106.30
2019-02-19T01:51:32.160Z,105.70
2019-02-19T01:54:02.196Z,117.90
2019-02-19T01:56:32.291Z,110.70
2019-02-19T01:59:02.246Z,118.07
2019-02-19T02:01:32.337Z,104.93
2019-02-19T02:04:02.349Z,117.07
2019-02-19T02:06:32.397Z,109.90
2019-02-19T02:09:03.202Z,108.67
2019-02-19T02:11:34.197Z,110.50
2019-02-19T02:14:04.196Z,123.40
2019-02-19T02:16:34.397Z,108.67
2019-02-19T02:19:04.537Z,118.00
2019-02-19T02:21:34.759Z,127.33
2019-02-19T02:24:04.997Z,114.77
2019-02-19T02:26:36.900Z,120.20
2019-02-19T02:29:08.050Z,120.33
2019-02-19T02:31:38.069Z,118.20
2019-02-19T02:34:07.997Z,119.07
2019-02-19T02:36:38.078Z,116.30
2019-02-19T02:39:08.129Z,118.53
2019-02-19T02:41:38.217Z,122.67
2019-02-19T02:44:08.176Z,124.03
2019-02-19T02:46:38.339Z,113.17
2019-02-19T02:49:08.450Z,102.80
2019-02-19T02:51:39.857Z,119.93
2019-02-19T02:54:09.810Z,113.37
2019-02-19T02:56:41.799Z,112.20
2019-02-19T02:59:11.850Z,116.87
2019-02-19T03:01:41.905Z,121.57
2019-02-19T03:04:11.937Z,120.90
2019-02-19T03:07:01.138Z,127.97
2019-02-19T03:09:31.318Z,124.70
2019-02-19T03:12:01.377Z,118.33
2019-02-19T03:14:31.369Z,116.73
2019-02-19T03:17:01.397Z,120.40
2019-02-19T03:19:31.363Z,131.40
2019-02-19T03:22:01.631Z,123.53
2019-02-19T03:24:31.886Z,128.40
2019-02-19T03:27:02.018Z,116.70
2019-02-19T03:29:32.249Z,138.50
2019-02-19T03:32:02.298Z,133.60
2019-02-19T03:34:32.500Z,120.60
2019-02-19T03:37:02.771Z,127.87
2019-02-19T03:39:32.891Z,122.63
2019-02-19T03:42:03.057Z,122.70
2019-02-19T03:44:33.261Z,129.60
2019-02-19T03:47:03.543Z,123.17
2019-02-19T03:49:33.723Z,116.00
2019-02-19T03:52:03.830Z,119.53
2019-02-19T03:54:34.118Z,125.20
2019-02-19T03:57:04.640Z,116.97
2019-02-19T03:59:34.949Z,131.70
2019-02-19T04:02:06.907Z,118.67
2019-02-19T04:04:36.963Z,116.93
2019-02-19T04:07:08.062Z,122.83
2019-02-19T04:09:38.115Z,128.40
2019-02-19T04:12:08.217Z,122.30
2019-02-19T04:14:38.257Z,114.13
2019-02-19T04:17:08.302Z,116.57
2019-02-19T04:19:38.333Z,109.13
2019-02-19T04:22:08.330Z,119.67
2019-02-19T04:24:38.371Z,119.90
2019-02-19T04:27:08.348Z,114.60
2019-02-19T04:29:38.446Z,120.67
2019-02-19T04:32:08.470Z,117.10
2019-02-19T04:34:38.700Z,121.73
2019-02-19T04:37:08.896Z,127.43
2019-02-19T04:39:39.065Z,132.50
2019-02-19T04:42:10.896Z,134.50
2019-02-19T04:44:40.939Z,142.37
2019-02-19T04:47:11.970Z,126.17
2019-02-19T04:49:42.150Z,130.17
2019-02-19T04:52:13.542Z,141.90
2019-02-19T04:54:43.617Z,123.30
2019-02-19T04:57:14.097Z,147.63
2019-02-19T04:59:44.156Z,137.37
2019-02-19T05:02:14.284Z,120.53
2019-02-19T05:04:46.299Z,118.83
2019-02-19T05:07:17.456Z,143.03
2019-02-19T05:09:47.658Z,138.50
2019-02-19T05:12:18.937Z,143.30
2019-02-19T05:14:49.102Z,145.63
2019-02-19T05:17:19.171Z,152.20
2019-02-19T05:19:49.089Z,148.47
2019-02-19T05:22:20.165Z,143.00
2019-02-19T05:24:50.409Z,165.53
2019-02-19T05:27:20.558Z,151.40
2019-02-19T05:29:50.589Z,167.80
2019-02-19T05:32:20.584Z,171.23
2019-02-19T05:34:50.690Z,164.50
2019-02-19T05:37:20.941Z,165.83
2019-02-19T05:39:51.103Z,162.40
2019-02-19T05:42:21.277Z,169.90
2019-02-19T05:44:51.284Z,154.60
2019-02-19T05:47:21.276Z,149.87
2019-02-19T05:49:51.349Z,147.27
2019-02-19T05:52:21.526Z,167.77
2019-02-19T05:54:51.762Z,161.33
2019-02-19T05:57:21.837Z,157.27
2019-02-19T05:59:52.191Z,156.83
2019-02-19T06:02:22.286Z,151.40
2019-02-19T06:04:52.264Z,158.60
2019-02-19T06:07:23.889Z,150.90
2019-02-19T06:09:53.918Z,162.00
2019-02-19T06:12:23.958Z,168.77
2019-02-19T06:14:54.427Z,162.77
2019-02-19T06:17:24.719Z,176.47
2019-02-19T06:19:54.837Z,158.97
2019-02-19T06:22:24.901Z,154.03
2019-02-19T06:24:54.957Z,153.80
2019-02-19T06:27:24.928Z,169.33
2019-02-19T06:29:55.017Z,161.97
2019-02-19T06:32:26.111Z,158.43
2019-02-19T06:34:56.098Z,166.00
2019-02-19T06:37:26.182Z,171.67
2019-02-19T06:39:57.140Z,168.30
2019-02-19T06:42:27.186Z,174.90
2019-02-19T06:44:57.254Z,173.17
2019-02-19T06:47:27.274Z,178.13
2019-02-19T06:49:57.650Z,167.43
2019-02-19T06:52:27.679Z,189.07
2019-02-19T06:54:57.715Z,190.40
2019-02-19T06:57:28.716Z,184.10
2019-02-19T06:59:59.917Z,189.30
2019-02-19T07:02:39.138Z,191.87
2019-02-19T07:05:14.269Z,171.10
2019-02-19T07:07:44.389Z,165.80
2019-02-19T07:10:14.477Z,159.57
2019-02-19T07:12:45.610Z,157.67
2019-02-19T07:15:16.747Z,145.60
2019-02-19T07:17:46.964Z,159.17
2019-02-19T07:20:17.030Z,170.73
2019-02-19T07:22:47.147Z,142.57
2019-02-19T07:25:17.225Z,129.77
2019-02-19T07:27:48.298Z,133.33
2019-02-19T07:30:18.284Z,150.53
2019-02-19T07:32:48.480Z,143.63
2019-02-19T07:35:18.493Z,123.37
2019-02-19T07:37:48.528Z,108.80
2019-02-19T07:40:18.621Z,99.77
2019-02-19T07:42:48.777Z,120.77
2019-02-19T07:45:18.973Z,129.70
2019-02-19T07:47:49.189Z,115.50
2019-02-19T07:50:19.376Z,106.95
2019-02-19T07:52:49.356Z,89.43
2019-02-19T07:55:20.933Z,74.27
2019-02-19T07:57:51.118Z,82.95
2019-02-19T08:00:21.444Z,84.15
2019-02-19T08:02:51.513Z,89.20
2019-02-19T08:05:21.949Z,94.13
2019-02-19T08:07:52.018Z,72.20
2019-02-19T08:10:22.220Z,83.27
2019-02-19T08:12:52.308Z,62.80
2019-02-19T08:15:22.444Z,85.00
2019-02-19T08:17:52.677Z,88.67
2019-02-19T08:20:22.949Z,88.37
2019-02-19T08:22:54.130Z,88.95
2019-02-19T08:25:24.330Z,75.47
2019-02-19T08:27:56.264Z,80.62
2019-02-19T08:30:26.030Z,72.95
2019-02-19T08:32:55.985Z,81.60
2019-02-19T08:35:26.378Z,77.95
2019-02-19T08:37:56.593Z,77.42
2019-02-19T08:40:26.717Z,87.82
2019-02-19T08:42:56.825Z,85.03
2019-02-19T08:45:26.937Z,69.00
2019-02-19T08:47:58.488Z,64.30
2019-02-19T08:50:28.503Z,77.08
2019-02-19T08:52:58.533Z,70.05
2019-02-19T08:55:28.684Z,62.70
2019-02-19T08:57:58.822Z,64.45
2019-02-19T09:00:30.664Z,60.30
2019-02-19T09:03:00.898Z,69.90
2019-02-19T09:05:31.009Z,67.10
2019-02-19T09:08:01.126Z,54.67
2019-02-19T09:10:32.135Z,65.20
2019-02-19T09:13:02.419Z,62.15
2019-02-19T09:15:32.490Z,64.05
2019-02-19T09:18:02.584Z,51.33
2019-02-19T09:20:32.597Z,48.83
2019-02-19T09:23:02.711Z,53.95
2019-02-19T09:25:32.827Z,68.78
2019-02-19T09:28:03.790Z,58.95
2019-02-19T09:30:34.938Z,58.33
2019-02-19T09:33:05.140Z,63.50
2019-02-19T09:35:35.256Z,60.73
2019-02-19T09:38:06.757Z,55.35
2019-02-19T09:40:36.903Z,60.38
2019-02-19T09:43:06.905Z,51.35
2019-02-19T09:45:36.949Z,44.18
2019-02-19T09:48:07.050Z,51.37
2019-02-19T09:50:37.166Z,48.60
2019-02-19T09:53:10.933Z,42.93
2019-02-19T09:55:41.079Z,58.85
2019-02-19T09:58:11.087Z,52.55
2019-02-19T10:00:41.209Z,51.08
2019-02-19T10:03:11.503Z,51.20
2019-02-19T10:05:41.713Z,42.95
2019-02-19T10:08:11.878Z,41.90
2019-02-19T10:10:42.154Z,47.85
2019-02-19T10:13:12.289Z,47.70
2019-02-19T10:15:43.116Z,38.30
2019-02-19T10:18:14.171Z,47.10
2019-02-19T10:20:44.483Z,47.62
2019-02-19T10:23:14.609Z,45.90
2019-02-19T10:25:44.760Z,42.55
2019-02-19T10:28:15.017Z,47.80
2019-02-19T10:30:46.911Z,44.65
2019-02-19T10:33:17.209Z,42.98
2019-02-19T10:35:47.748Z,40.08
2019-02-19T10:38:18.109Z,44.27
2019-02-19T10:40:48.498Z,44.67
2019-02-19T10:43:18.795Z,45.45
2019-02-19T10:45:49.072Z,38.33
2019-02-19T10:48:19.473Z,48.75
2019-02-19T10:50:49.552Z,44.45
2019-02-19T10:53:21.853Z,46.15
2019-02-19T10:55:52.673Z,26.65
2019-02-19T10:58:23.436Z,47.30
2019-02-19T11:00:53.731Z,42.95
2019-02-19T11:03:23.974Z,45.78
2019-02-19T11:05:54.304Z,41.18
2019-02-19T11:08:24.462Z,36.93
2019-02-19T11:10:54.620Z,46.85
2019-02-19T11:13:24.852Z,37.98
2019-02-19T11:15:55.076Z,38.48
2019-02-19T11:18:28.514Z,42.23
2019-02-19T11:20:57.029Z,44.75
2019-02-19T11:23:27.023Z,42.33
2019-02-19T11:25:57.169Z,35.60
2019-02-19T11:28:27.270Z,37.40
2019-02-19T11:30:57.522Z,34.75
2019-02-19T11:33:27.733Z,46.23
2019-02-19T11:35:57.870Z,39.53
2019-02-19T11:38:28.033Z,33.95
2019-02-19T11:40:58.134Z,33.92
2019-02-19T11:43:28.228Z,32.50
2019-02-19T11:45:58.410Z,38.55
2019-02-19T11:48:36.590Z,33.45
2019-02-19T11:51:00.298Z,36.68
2019-02-19T11:53:30.574Z,34.43
2019-02-19T11:56:00.625Z,37.08
2019-02-19T11:58:30.777Z,31.77
2019-02-19T12:01:01.559Z,32.42
2019-02-19T12:03:32.770Z,36.40
2019-02-19T12:06:02.839Z,31.05
2019-02-19T12:08:38.766Z,34.83
2019-02-19T12:11:04.829Z,40.78
2019-02-19T12:13:35.098Z,39.80
2019-02-19T12:16:05.293Z,30.10
2019-02-19T12:18:36.566Z,28.27
2019-02-19T12:21:08.118Z,34.38
2019-02-19T12:23:38.329Z,29.07
2019-02-19T12:26:08.656Z,33.48
2019-02-19T12:28:38.974Z,34.60
2019-02-19T12:31:09.100Z,25.23
2019-02-19T12:33:39.287Z,30.97
2019-02-19T12:36:09.672Z,29.95
2019-02-19T12:38:39.957Z,29.70
2019-02-19T12:41:10.117Z,26.42
2019-02-19T12:43:41.189Z,33.75
2019-02-19T12:46:11.408Z,34.53
2019-02-19T12:48:41.618Z,28.40
2019-02-19T12:51:11.633Z,29.63
2019-02-19T12:53:41.741Z,24.63
2019-02-19T12:56:11.876Z,23.30
2019-02-19T12:58:42.033Z,28.45
2019-02-19T13:01:12.238Z,32.60
2019-02-19T13:04:03.903Z,28.73
2019-02-19T13:06:34.677Z,27.20
2019-02-19T13:09:06.038Z,31.65
2019-02-19T13:11:54.664Z,31.27
2019-02-19T13:14:28.536Z,25.50
2019-02-19T13:17:10.738Z,28.17
2019-02-19T13:19:42.820Z,30.35
2019-02-19T13:22:12.851Z,30.12
2019-02-19T13:24:44.036Z,24.98
2019-02-19T13:27:14.151Z,27.55
2019-02-19T13:29:44.351Z,26.00
2019-02-19T13:32:14.485Z,23.95
2019-02-19T13:34:44.545Z,31.73
2019-02-19T13:37:14.670Z,29.48
2019-02-19T13:39:44.839Z,32.03
2019-02-19T13:42:15.075Z,33.38
2019-02-19T13:44:45.120Z,37.78
2019-02-19T13:47:15.103Z,28.67
2019-02-19T13:49:45.118Z,33.02
2019-02-19T13:52:23.462Z,31.62
2019-02-19T13:54:57.974Z,30.82
2019-02-19T13:57:27.972Z,28.10
2019-02-19T14:00:00.145Z,31.37
2019-02-19T14:02:30.734Z,30.02
2019-02-19T14:05:01.121Z,40.40
2019-02-19T14:07:32.979Z,32.83
2019-02-19T14:10:05.149Z,25.95
2019-02-19T14:12:35.397Z,36.10
2019-02-19T14:15:24.930Z,31.40
2019-02-19T14:17:55.229Z,32.28
2019-02-19T14:20:35.472Z,33.28
2019-02-19T14:23:17.900Z,33.88
2019-02-19T14:26:07.118Z,31.33
2019-02-19T14:28:56.170Z,33.73
2019-02-19T14:31:36.705Z,36.10
2019-02-19T14:34:25.779Z,35.75
2019-02-19T14:37:09.301Z,35.43
2019-02-19T14:39:52.537Z,31.40
2019-02-19T14:42:41.730Z,33.20
2019-02-19T14:45:31.070Z,36.50
2019-02-19T14:48:22.103Z,37.28
2019-02-19T14:51:11.317Z,40.12
2019-02-19T14:54:00.405Z,33.38
2019-02-19T14:56:43.198Z,33.70
2019-02-19T14:59:32.317Z,40.65
2019-02-19T15:02:21.494Z,39.03
2019-02-19T15:05:10.700Z,33.75
2019-02-19T15:07:56.580Z,39.50
2019-02-19T15:10:36.668Z,40.17
2019-02-19T15:13:14.471Z,41.55
2019-02-19T15:16:03.660Z,41.50
2019-02-19T15:18:52.738Z,42.67
2019-02-19T15:21:41.922Z,40.38
2019-02-19T15:24:31.072Z,38.38
2019-02-19T15:27:09.130Z,45.40
2019-02-19T15:29:58.368Z,43.80
2019-02-19T15:32:47.532Z,37.45
2019-02-19T15:35:36.776Z,41.90
2019-02-19T15:38:23.077Z,48.30
2019-02-19T15:41:12.299Z,48.83
2019-02-19T15:43:52.579Z,50.15
2019-02-19T15:46:29.497Z,47.73
2019-02-19T15:49:18.597Z,45.15
2019-02-19T15:52:08.055Z,43.13
2019-02-19T15:54:48.457Z,41.95
2019-02-19T15:57:37.719Z,44.40
2019-02-19T16:00:27.258Z,36.08
2019-02-19T16:03:05.902Z,39.92
2019-02-19T16:05:55.119Z,37.88
2019-02-19T16:08:33.669Z,42.50
2019-02-19T16:11:13.344Z,49.53
2019-02-19T16:13:55.478Z,49.93
2019-02-19T16:16:55.585Z,44.70
2019-02-19T16:19:41.270Z,39.35
2019-02-19T16:22:30.506Z,42.98
2019-02-19T16:25:17.023Z,42.85
2019-02-19T16:28:06.150Z,49.75
2019-02-19T16:31:00.889Z,42.67
2019-02-19T16:34:12.899Z,48.85
2019-02-19T16:36:58.027Z,38.50
2019-02-19T16:39:55.752Z,43.20
2019-02-19T16:42:45.267Z,46.15
2019-02-19T16:45:36.698Z,50.48
2019-02-19T16:48:40.415Z,51.77
2019-02-19T16:51:31.555Z,47.43
2019-02-19T16:54:15.722Z,47.17
2019-02-19T16:57:28.902Z,46.15
2019-02-19T17:00:15.142Z,49.03
2019-02-19T17:03:14.658Z,45.23
2019-02-19T17:06:13.339Z,50.50
2019-02-19T17:09:12.100Z,46.35
2019-02-19T17:11:57.689Z,45.58
2019-02-19T17:15:00.535Z,44.75
2019-02-19T17:17:50.888Z,40.73
2019-02-19T17:20:46.188Z,46.73
2019-02-19T17:23:41.124Z,51.20
2019-02-19T17:26:33.993Z,48.68
2019-02-19T17:29:37.683Z,51.02
2019-02-19T17:32:29.124Z,51.45
2019-02-19T17:35:28.069Z,54.25
2019-02-19T17:38:14.716Z,47.65
2019-02-19T17:41:08.750Z,52.70
2019-02-19T17:43:50.463Z,49.03
2019-02-19T17:46:47.308Z,46.15
2019-02-19T17:49:45.790Z,48.83
2019-02-19T17:52:40.872Z,42.05
2019-02-19T17:55:30.791Z,45.17
2019-02-19T17:58:23.824Z,46.55
2019-02-19T18:01:07.269Z,43.23
2019-02-19T18:03:54.128Z,55.90
2019-02-19T18:06:40.047Z,47.78
2019-02-19T18:09:40.012Z,45.67
2019-02-19T18:12:31.915Z,46.80
2019-02-19T18:15:21.245Z,49.05
2019-02-19T18:18:14.959Z,52.53
2019-02-19T18:20:55.981Z,49.08
2019-02-19T18:23:27.868Z,48.17
2019-02-19T18:26:03.762Z,54.98
2019-02-19T18:28:35.832Z,53.90
2019-02-19T18:31:07.294Z,46.28
2019-02-19T18:33:47.278Z,46.33
2019-02-19T18:36:38.192Z,57.35
2019-02-19T18:39:25.884Z,53.70
2019-02-19T18:42:00.101Z,49.77
2019-02-19T18:44:30.251Z,60.17
2019-02-19T18:47:00.599Z,51.37
2019-02-19T18:49:32.250Z,54.42
2019-02-19T18:52:02.764Z,50.90
2019-02-19T18:55:09.114Z,59.42
2019-02-19T19:04:32.136Z,64.25
2019-02-19T19:10:48.229Z,58.78
2019-02-19T19:22:52.809Z,50.45
2019-02-19T19:25:28.693Z,47.48
2019-02-19T19:28:02.167Z,43.50
2019-02-19T19:30:32.791Z,44.48
2019-02-19T19:33:04.579Z,44.93
2019-02-19T19:35:35.848Z,52.15
2019-02-19T19:38:06.159Z,40.52
2019-02-19T19:40:48.297Z,39.60
2019-02-19T19:43:25.623Z,39.50
2019-02-19T19:45:58.930Z,39.27
2019-02-19T19:48:37.973Z,36.23
2019-02-19T19:51:21.331Z,35.20
2019-02-19T19:53:58.337Z,39.67
2019-02-19T19:56:37.204Z,37.65
2019-02-19T19:59:17.007Z,32.85
2019-02-19T20:01:47.385Z,40.35
2019-02-19T20:04:19.429Z,42.05
2019-02-19T20:06:49.668Z,39.05
2019-02-19T20:09:22.935Z,36.63
2019-02-19T20:11:53.448Z,33.75
2019-02-19T20:14:27.265Z,36.17
2019-02-19T20:17:01.519Z,39.55
2019-02-19T20:19:33.222Z,41.45
2019-02-19T20:22:04.032Z,43.25
2019-02-19T20:24:37.471Z,39.53
2019-02-19T20:27:10.855Z,42.43
2019-02-19T20:29:43.852Z,51.83
2019-02-19T20:32:18.127Z,52.10
2019-02-19T20:34:50.662Z,46.37
2019-02-19T20:37:23.129Z,49.55
2019-02-19T20:39:53.495Z,50.75
2019-02-19T20:42:23.810Z,47.45
2019-02-19T20:45:01.524Z,57.05
2019-02-19T20:47:34.767Z,46.98
2019-02-19T20:50:10.104Z,45.60
2019-02-19T20:52:43.604Z,48.42
2019-02-19T20:55:16.945Z,50.55
2019-02-19T20:57:49.822Z,54.25
2019-02-19T21:00:20.106Z,58.00
2019-02-19T21:02:51.022Z,53.58
2019-02-19T21:05:22.063Z,51.33
2019-02-19T21:07:52.261Z,55.00
2019-02-19T21:10:25.758Z,49.77
2019-02-19T21:12:56.944Z,58.68
2019-02-19T21:15:27.845Z,53.10
2019-02-19T21:17:58.167Z,49.53
2019-02-19T21:20:30.132Z,49.85
2019-02-19T21:23:00.880Z,55.05
2019-02-19T21:25:31.605Z,50.40
2019-02-19T21:28:01.860Z,51.83
2019-02-19T21:30:35.932Z,51.37
2019-02-19T21:33:08.771Z,53.85
2019-02-19T21:35:43.211Z,56.33
2019-02-19T21:38:16.573Z,58.65
2019-02-19T21:40:47.018Z,54.25
2019-02-19T21:43:17.555Z,53.30
2019-02-19T21:45:48.720Z,53.08
2019-02-19T21:48:19.234Z,47.23
2019-02-19T21:50:49.784Z,50.88
2019-02-19T21:53:20.454Z,51.45
2019-02-19T21:55:50.730Z,51.53
2019-02-19T21:58:21.314Z,47.65
2019-02-19T22:00:52.694Z,44.83
2019-02-19T22:03:28.844Z,42.08
2019-02-19T22:06:00.779Z,41.45
2019-02-19T22:08:31.297Z,49.23
2019-02-19T22:11:01.943Z,42.73
2019-02-19T22:13:31.976Z,45.88
2019-02-19T22:16:02.226Z,46.20
2019-02-19T22:18:32.462Z,39.75
2019-02-19T22:21:15.791Z,45.65
2019-02-19T22:23:46.432Z,42.98
2019-02-19T22:26:16.449Z,43.95
2019-02-19T22:28:46.617Z,51.08
2019-02-19T22:31:16.927Z,42.83
2019-02-19T22:33:47.218Z,44.42
2019-02-19T22:36:17.754Z,45.30
2019-02-19T22:38:49.993Z,38.80
2019-02-19T22:41:20.906Z,38.55
2019-02-19T22:43:51.151Z,40.15
2019-02-19T22:46:22.147Z,46.30
2019-02-19T22:48:52.279Z,46.50
2019-02-19T22:51:22.837Z,42.85
2019-02-19T22:54:01.848Z,42.98
2019-02-19T22:56:37.051Z,43.33
2019-02-19T22:59:07.295Z,46.02
2019-02-19T23:04:23.045Z,47.00
2019-02-19T23:06:54.419Z,52.50
2019-02-19T23:09:24.883Z,42.78
2019-02-19T23:11:56.539Z,50.55
2019-02-19T23:14:26.816Z,46.10
2019-02-19T23:16:56.998Z,48.05
2019-02-19T23:19:27.217Z,50.33
2019-02-19T23:21:57.300Z,52.48
2019-02-19T23:24:27.388Z,49.88
2019-02-19T23:26:57.529Z,43.40
2019-02-19T23:29:27.856Z,43.80
2019-02-19T23:31:58.137Z,48.05
2019-02-19T23:34:28.241Z,49.93
2019-02-19T23:37:06.061Z,45.43
2019-02-19T23:39:43.434Z,48.30
2019-02-19T23:42:08.297Z,42.55
2019-02-19T23:44:38.632Z,52.88
2019-02-19T23:47:08.757Z,50.95
2019-02-19T23:49:38.759Z,47.30
2019-02-19T23:52:09.043Z,39.83
2019-02-19T23:54:39.150Z,46.77
2019-02-19T23:57:09.553Z,44.90
2019-02-19T23:59:40.838Z,46.68
